createdAt,value
2023-04-18T00:00:49.354Z,15.93
2023-04-18T00:03:18.333Z,20.43
2023-04-18T00:05:48.303Z,41.63
2023-04-18T00:08:17.444Z,25.10
2023-04-18T00:10:46.314Z,36.43
2023-04-18T00:13:19.406Z,18.83
2023-04-18T00:15:48.230Z,20.83
2023-04-18T00:18:17.313Z,26.60
2023-04-18T00:20:47.435Z,30.70
2023-04-18T00:23:16.468Z,30.33
2023-04-18T00:25:45.284Z,29.27
2023-04-18T00:28:15.588Z,22.50
2023-04-18T00:30:44.350Z,24.27
2023-04-18T00:33:13.022Z,34.40
2023-04-18T00:35:41.954Z,25.20
2023-04-18T00:38:10.680Z,26.63
2023-04-18T00:40:39.619Z,28.17
2023-04-18T00:43:09.751Z,35.30
2023-04-18T00:45:40.001Z,30.10
2023-04-18T00:48:09.129Z,27.67
2023-04-18T00:50:40.618Z,28.67
2023-04-18T00:53:12.485Z,28.20
2023-04-18T00:55:41.596Z,26.57
2023-04-18T00:58:10.598Z,27.93
2023-04-18T01:00:40.909Z,29.37
2023-04-18T01:03:10.870Z,35.67
2023-04-18T01:05:40.303Z,34.37
2023-04-18T01:08:09.072Z,35.80
2023-04-18T01:10:38.460Z,35.83
2023-04-18T01:13:15.175Z,39.40
2023-04-18T01:15:48.057Z,35.00
2023-04-18T01:18:18.561Z,36.80
2023-04-18T01:20:50.113Z,39.13
2023-04-18T01:23:21.905Z,36.37
2023-04-18T01:25:52.107Z,39.90
2023-04-18T01:28:22.843Z,37.40
2023-04-18T01:30:52.788Z,38.07
2023-04-18T01:33:21.538Z,40.40
2023-04-18T01:35:50.342Z,36.63
2023-04-18T01:38:19.131Z,37.53
2023-04-18T01:40:48.210Z,36.87
2023-04-18T01:43:18.501Z,38.23
2023-04-18T01:45:47.191Z,36.67
2023-04-18T01:48:16.003Z,38.80
2023-04-18T01:50:44.974Z,38.93
2023-04-18T01:53:13.646Z,36.00
2023-04-18T01:55:45.755Z,39.10
2023-04-18T01:58:15.757Z,37.43
2023-04-18T02:00:45.900Z,39.67
2023-04-18T02:03:14.842Z,41.20
2023-04-18T02:05:43.932Z,40.20
2023-04-18T02:08:12.725Z,37.73
2023-04-18T02:10:42.706Z,39.63
2023-04-18T02:13:11.388Z,41.23
2023-04-18T02:15:40.184Z,39.57
2023-04-18T02:18:11.693Z,40.43
2023-04-18T02:20:41.922Z,42.43
2023-04-18T02:23:10.760Z,45.10
2023-04-18T02:25:39.505Z,42.60
2023-04-18T02:28:08.224Z,42.47
2023-04-18T02:30:37.128Z,42.30
2023-04-18T02:33:05.995Z,41.93
2023-04-18T02:35:36.611Z,42.53
2023-04-18T02:38:05.387Z,40.17
2023-04-18T02:40:34.117Z,40.43
2023-04-18T02:43:02.835Z,40.80
2023-04-18T02:45:32.793Z,42.60
2023-04-18T02:48:03.369Z,42.07
2023-04-18T02:50:35.547Z,44.03
2023-04-18T02:53:04.530Z,41.07
2023-04-18T02:55:46.074Z,43.00
2023-04-18T02:58:14.859Z,40.17
2023-04-18T03:01:09.291Z,40.70
2023-04-18T03:03:57.527Z,41.50
2023-04-18T03:06:35.972Z,42.43
2023-04-18T03:09:05.460Z,38.87
2023-04-18T03:11:37.372Z,41.60
2023-04-18T03:14:07.513Z,41.77
2023-04-18T03:16:47.828Z,40.20
2023-04-18T03:19:20.881Z,41.03
2023-04-18T03:21:51.863Z,46.13
2023-04-18T03:24:20.644Z,40.77
2023-04-18T03:26:52.663Z,42.37
2023-04-18T03:29:25.315Z,43.00
2023-04-18T03:31:54.007Z,44.53
2023-04-18T03:34:22.811Z,43.10
2023-04-18T03:36:53.658Z,41.03
2023-04-18T03:39:23.301Z,41.27
2023-04-18T03:41:54.669Z,40.03
2023-04-18T03:44:23.660Z,39.90
2023-04-18T03:46:52.629Z,37.67
2023-04-18T03:49:21.409Z,38.80
2023-04-18T03:51:50.510Z,39.07
2023-04-18T03:54:21.855Z,39.17
2023-04-18T03:56:51.671Z,40.80
2023-04-18T03:59:24.650Z,40.00
2023-04-18T04:01:53.665Z,39.37
2023-04-18T04:04:22.815Z,41.27
2023-04-18T04:06:53.762Z,39.97
2023-04-18T04:09:24.288Z,43.37
2023-04-18T04:11:53.481Z,42.53
2023-04-18T04:14:23.015Z,39.47
2023-04-18T04:16:52.418Z,44.73
2023-04-18T04:19:22.078Z,43.00
2023-04-18T04:21:58.942Z,47.77
2023-04-18T04:24:30.861Z,43.00
2023-04-18T04:27:04.312Z,46.77
2023-04-18T04:29:39.848Z,46.17
2023-04-18T04:32:09.469Z,45.60
2023-04-18T04:34:42.186Z,46.33
2023-04-18T04:37:15.664Z,48.87
2023-04-18T04:40:00.899Z,46.63
2023-04-18T04:42:43.813Z,48.17
2023-04-18T04:45:20.121Z,49.40
2023-04-18T04:47:49.964Z,47.37
2023-04-18T04:50:21.565Z,48.47
2023-04-18T04:52:50.675Z,51.50
2023-04-18T04:55:21.383Z,50.00
2023-04-18T04:57:52.147Z,50.90
2023-04-18T05:00:38.084Z,51.43
2023-04-18T05:03:07.208Z,49.40
2023-04-18T05:05:36.260Z,46.90
2023-04-18T05:08:05.311Z,46.50
2023-04-18T05:10:37.171Z,46.07
2023-04-18T05:13:06.463Z,50.93
2023-04-18T05:15:36.042Z,48.63
2023-04-18T05:18:05.162Z,46.50
2023-04-18T05:20:34.119Z,43.00
2023-04-18T05:23:03.374Z,45.37
2023-04-18T05:25:34.161Z,44.57
2023-04-18T05:28:04.588Z,46.70
2023-04-18T05:30:33.353Z,47.00
2023-04-18T05:33:02.055Z,42.77
2023-04-18T05:35:30.817Z,45.80
2023-04-18T05:38:00.115Z,45.20
2023-04-18T05:40:30.072Z,45.83
2023-04-18T05:43:00.430Z,45.80
2023-04-18T05:45:29.114Z,42.70
2023-04-18T05:47:57.919Z,46.13
2023-04-18T05:50:26.746Z,43.93
2023-04-18T05:52:55.407Z,43.30
2023-04-18T05:55:24.120Z,39.30
2023-04-18T05:57:52.858Z,45.30
2023-04-18T06:00:23.699Z,40.77
2023-04-18T06:02:52.518Z,41.43
2023-04-18T06:05:21.656Z,40.03
2023-04-18T06:07:50.735Z,38.70
2023-04-18T06:10:19.382Z,37.17
2023-04-18T06:12:47.976Z,38.47
2023-04-18T06:15:16.651Z,37.37
2023-04-18T06:17:46.708Z,35.47
2023-04-18T06:20:15.573Z,33.10
2023-04-18T06:22:44.277Z,33.60
2023-04-18T06:25:12.953Z,32.00
2023-04-18T06:27:41.701Z,34.37
2023-04-18T06:30:12.073Z,33.03
2023-04-18T06:32:40.867Z,32.00
2023-04-18T06:35:11.492Z,33.07
2023-04-18T06:37:44.075Z,34.50
2023-04-18T06:40:13.748Z,31.63
2023-04-18T06:42:44.791Z,33.30
2023-04-18T06:45:14.267Z,28.70
2023-04-18T06:47:43.068Z,29.93
2023-04-18T06:50:13.266Z,32.83
2023-04-18T06:52:44.514Z,31.53
2023-04-18T06:55:14.775Z,30.47
2023-04-18T06:57:44.548Z,34.03
2023-04-18T07:00:14.474Z,34.30
2023-04-18T07:02:43.631Z,37.23
2023-04-18T07:05:13.925Z,36.07
2023-04-18T07:07:42.590Z,39.50
2023-04-18T07:10:12.360Z,36.43
2023-04-18T07:12:41.027Z,40.57
2023-04-18T07:15:11.784Z,40.50
2023-04-18T07:17:40.558Z,36.00
2023-04-18T07:20:12.979Z,38.00
2023-04-18T07:22:44.401Z,37.00
2023-04-18T07:25:13.256Z,38.90
2023-04-18T07:27:41.903Z,35.73
2023-04-18T07:30:12.063Z,39.53
2023-04-18T07:32:40.754Z,37.83
2023-04-18T07:35:10.411Z,39.40
2023-04-18T07:37:39.302Z,36.50
2023-04-18T07:40:11.617Z,34.00
2023-04-18T07:42:40.374Z,39.50
2023-04-18T07:45:09.833Z,38.57
2023-04-18T07:47:38.617Z,36.03
2023-04-18T07:50:10.321Z,37.17
2023-04-18T07:52:39.577Z,38.30
2023-04-18T07:55:11.003Z,38.70
2023-04-18T07:57:39.862Z,36.17
2023-04-18T08:00:10.634Z,37.57
2023-04-18T08:02:42.303Z,34.87
2023-04-18T08:05:12.090Z,38.27
2023-04-18T08:07:40.897Z,41.40
2023-04-18T08:10:11.916Z,36.20
2023-04-18T08:12:40.718Z,36.70
2023-04-18T08:15:11.057Z,36.47
2023-04-18T08:17:42.746Z,37.33
2023-04-18T08:20:13.070Z,38.67
2023-04-18T08:22:57.794Z,36.90
2023-04-18T08:25:33.233Z,36.37
2023-04-18T08:28:02.097Z,36.33
2023-04-18T08:30:31.404Z,35.13
2023-04-18T08:33:01.194Z,34.40
2023-04-18T08:35:30.004Z,34.20
2023-04-18T08:37:59.095Z,33.80
2023-04-18T08:40:27.767Z,34.40
2023-04-18T08:43:01.276Z,37.20
2023-04-18T08:45:31.344Z,36.10
2023-04-18T08:48:01.639Z,34.57
2023-04-18T08:50:30.447Z,30.60
2023-04-18T08:53:02.097Z,33.47
2023-04-18T08:55:30.881Z,35.13
2023-04-18T08:58:01.485Z,31.00
2023-04-18T09:00:30.673Z,34.90
2023-04-18T09:02:59.837Z,32.40
2023-04-18T09:05:29.782Z,33.57
2023-04-18T09:07:58.558Z,37.37
2023-04-18T09:10:29.893Z,40.60
2023-04-18T09:13:03.410Z,37.33
2023-04-18T09:15:32.678Z,31.77
2023-04-18T09:18:03.542Z,33.93
2023-04-18T09:20:37.741Z,33.03
2023-04-18T09:23:11.229Z,36.50
2023-04-18T09:25:46.747Z,34.77
2023-04-18T09:28:28.218Z,34.47
2023-04-18T09:30:58.681Z,33.23
2023-04-18T09:33:29.441Z,31.03
2023-04-18T09:36:16.709Z,33.63
2023-04-18T09:38:45.897Z,31.10
2023-04-18T09:41:19.938Z,31.10
2023-04-18T09:43:52.273Z,31.00
2023-04-18T09:46:22.644Z,32.00
2023-04-18T09:48:51.554Z,32.30
2023-04-18T09:51:20.945Z,36.37
2023-04-18T09:53:51.092Z,36.80
2023-04-18T09:56:26.788Z,35.77
2023-04-18T09:59:08.501Z,37.53
2023-04-18T10:01:37.805Z,38.67
2023-04-18T10:04:08.066Z,35.27
2023-04-18T10:06:39.942Z,37.40
2023-04-18T10:09:10.979Z,41.90
2023-04-18T10:11:40.469Z,42.80
2023-04-18T10:14:14.956Z,42.70
2023-04-18T10:16:47.485Z,37.90
2023-04-18T10:19:25.335Z,38.57
2023-04-18T10:21:56.096Z,40.97
2023-04-18T10:24:57.167Z,42.83
2023-04-18T10:27:59.979Z,44.33
2023-04-18T10:31:03.877Z,39.53
2023-04-18T10:33:35.357Z,42.47
2023-04-18T10:36:20.551Z,38.47
2023-04-18T10:38:53.081Z,42.10
2023-04-18T10:41:27.646Z,41.13
2023-04-18T10:44:20.676Z,41.17
2023-04-18T10:47:34.065Z,46.37
2023-04-18T10:50:06.895Z,44.87
2023-04-18T10:52:36.499Z,49.80
2023-04-18T10:55:17.613Z,44.23
2023-04-18T10:57:48.424Z,49.47
2023-04-18T11:00:21.729Z,41.60
2023-04-18T11:02:57.893Z,41.70
2023-04-18T11:05:30.174Z,41.60
2023-04-18T11:07:58.895Z,36.90
2023-04-18T11:10:29.546Z,40.00
2023-04-18T11:13:04.568Z,38.37
2023-04-18T11:15:33.425Z,40.97
2023-04-18T11:18:05.459Z,40.47
2023-04-18T11:20:47.095Z,37.07
2023-04-18T11:23:22.976Z,41.43
2023-04-18T11:25:54.594Z,41.33
2023-04-18T11:28:25.147Z,41.77
2023-04-18T11:30:58.425Z,38.50
2023-04-18T11:33:30.376Z,40.87
2023-04-18T11:36:00.630Z,42.43
2023-04-18T11:38:31.331Z,40.40
2023-04-18T11:41:00.432Z,36.90
2023-04-18T11:43:29.132Z,41.20
2023-04-18T11:45:59.612Z,41.47
2023-04-18T11:48:36.544Z,41.43
2023-04-18T11:51:07.493Z,36.57
2023-04-18T11:53:38.943Z,42.37
2023-04-18T11:56:08.785Z,43.67
2023-04-18T11:58:38.281Z,38.13
2023-04-18T12:01:21.810Z,38.13
2023-04-18T12:04:07.412Z,37.37
2023-04-18T12:06:52.963Z,39.13
2023-04-18T12:09:24.593Z,36.30
2023-04-18T12:12:02.184Z,38.80
2023-04-18T12:14:32.433Z,39.93
2023-04-18T12:17:06.579Z,38.17
2023-04-18T12:19:35.577Z,33.53
2023-04-18T12:22:06.813Z,32.63
2023-04-18T12:24:38.050Z,35.17
2023-04-18T12:27:09.812Z,35.57
2023-04-18T12:29:40.138Z,35.40
2023-04-18T12:32:09.889Z,32.47
2023-04-18T12:34:39.573Z,35.60
2023-04-18T12:37:16.759Z,33.73
2023-04-18T12:39:47.934Z,34.30
2023-04-18T12:42:17.840Z,35.27
2023-04-18T12:44:47.993Z,32.97
2023-04-18T12:47:18.868Z,35.63
2023-04-18T12:49:49.250Z,37.37
2023-04-18T12:52:22.446Z,37.73
2023-04-18T12:54:53.317Z,39.70
2023-04-18T12:57:24.405Z,39.80
2023-04-18T12:59:55.149Z,36.87
2023-04-18T13:02:25.408Z,37.87
2023-04-18T13:04:54.438Z,38.40
2023-04-18T13:07:27.587Z,39.73
2023-04-18T13:09:58.373Z,41.20
2023-04-18T13:12:29.952Z,39.47
2023-04-18T13:15:01.006Z,39.77
2023-04-18T13:17:30.941Z,38.40
2023-04-18T13:20:02.527Z,37.37
2023-04-18T13:22:34.602Z,34.53
2023-04-18T13:25:05.602Z,37.87
2023-04-18T13:27:38.099Z,37.63
2023-04-18T13:30:13.134Z,34.40
2023-04-18T13:32:47.845Z,34.13
2023-04-18T13:35:20.112Z,37.87
2023-04-18T13:37:51.729Z,33.47
2023-04-18T13:40:21.465Z,37.57
2023-04-18T13:42:52.051Z,35.30
2023-04-18T13:45:21.820Z,37.63
2023-04-18T13:47:53.038Z,35.43
2023-04-18T13:50:23.369Z,34.20
2023-04-18T13:52:56.921Z,37.77
2023-04-18T13:55:28.064Z,33.00
2023-04-18T13:57:59.466Z,37.10
2023-04-18T14:00:30.501Z,37.27
2023-04-18T14:03:00.707Z,39.67
2023-04-18T14:05:31.253Z,32.47
2023-04-18T14:08:04.339Z,38.57
2023-04-18T14:10:34.822Z,36.70
2023-04-18T14:13:03.917Z,35.07
2023-04-18T14:15:35.062Z,32.97
2023-04-18T14:18:04.029Z,32.33
2023-04-18T14:20:38.191Z,36.07
2023-04-18T14:23:08.707Z,34.87
2023-04-18T14:25:38.646Z,30.93
2023-04-18T14:28:10.881Z,32.87
2023-04-18T14:30:41.354Z,31.00
2023-04-18T14:33:10.826Z,30.50
2023-04-18T14:35:40.605Z,31.67
2023-04-18T14:38:11.381Z,30.87
2023-04-18T14:40:43.264Z,34.13
2023-04-18T14:43:25.068Z,32.17
2023-04-18T14:45:54.068Z,33.83
2023-04-18T14:48:22.879Z,34.10
2023-04-18T14:50:58.422Z,31.70
2023-04-18T14:53:28.879Z,29.53
2023-04-18T14:55:57.732Z,32.00
2023-04-18T14:58:26.868Z,30.77
2023-04-18T15:00:55.912Z,28.10
2023-04-18T15:03:25.369Z,32.27
2023-04-18T15:05:54.780Z,31.27
2023-04-18T15:08:23.428Z,29.13
2023-04-18T15:10:53.572Z,27.17
2023-04-18T15:13:22.528Z,31.00
2023-04-18T15:15:55.943Z,33.93
2023-04-18T15:18:26.109Z,30.60
2023-04-18T15:20:57.259Z,29.23
2023-04-18T15:23:26.358Z,30.20
2023-04-18T15:25:59.977Z,30.47
2023-04-18T15:28:29.708Z,26.20
2023-04-18T15:30:58.649Z,26.03
2023-04-18T15:33:28.498Z,26.47
2023-04-18T15:35:57.349Z,24.57
2023-04-18T15:38:26.416Z,28.37
2023-04-18T15:40:56.569Z,26.63
2023-04-18T15:43:25.868Z,29.20
2023-04-18T15:45:54.899Z,26.83
2023-04-18T15:48:23.759Z,27.97
2023-04-18T15:50:53.253Z,29.27
2023-04-18T15:53:22.079Z,28.07
2023-04-18T15:55:51.515Z,27.43
2023-04-18T15:58:22.188Z,33.37
2023-04-18T16:00:51.981Z,32.27
2023-04-18T16:03:21.500Z,28.40
2023-04-18T16:05:50.794Z,30.47
2023-04-18T16:08:20.746Z,39.57
2023-04-18T16:10:50.033Z,34.53
2023-04-18T16:13:20.444Z,34.73
2023-04-18T16:15:49.498Z,36.20
2023-04-18T16:18:18.369Z,32.33
2023-04-18T16:20:47.469Z,35.87
2023-04-18T16:23:17.073Z,39.43
2023-04-18T16:25:46.279Z,34.90
2023-04-18T16:28:17.067Z,33.03
2023-04-18T16:30:48.024Z,36.47
2023-04-18T16:33:20.797Z,35.67
2023-04-18T16:35:49.917Z,37.97
2023-04-18T16:38:18.938Z,34.67
2023-04-18T16:40:48.206Z,37.80
2023-04-18T16:43:17.030Z,35.80
2023-04-18T16:45:47.662Z,36.27
2023-04-18T16:48:16.413Z,36.57
2023-04-18T16:50:46.774Z,41.03
2023-04-18T16:53:15.493Z,38.93
2023-04-18T16:55:46.225Z,38.43
2023-04-18T16:58:26.629Z,34.43
2023-04-18T17:01:12.041Z,37.80
2023-04-18T17:03:41.114Z,36.03
2023-04-18T17:06:09.952Z,40.47
2023-04-18T17:08:39.036Z,38.33
2023-04-18T17:11:09.236Z,39.13
2023-04-18T17:13:39.139Z,36.27
2023-04-18T17:16:09.650Z,36.93
2023-04-18T17:18:38.560Z,38.50
2023-04-18T17:21:07.873Z,39.13
2023-04-18T17:23:38.600Z,34.43
2023-04-18T17:26:07.540Z,35.30
2023-04-18T17:28:36.518Z,40.80
2023-04-18T17:31:06.759Z,37.37
2023-04-18T17:33:37.193Z,37.00
2023-04-18T17:36:07.797Z,38.87
2023-04-18T17:38:36.640Z,38.97
2023-04-18T17:41:06.739Z,34.63
2023-04-18T17:43:35.575Z,37.77
2023-04-18T17:46:04.339Z,35.43
2023-04-18T17:48:33.139Z,41.33
2023-04-18T17:51:03.429Z,38.53
2023-04-18T17:53:32.634Z,38.87
2023-04-18T17:56:03.897Z,36.07
2023-04-18T17:58:33.009Z,39.63
2023-04-18T18:01:02.029Z,35.90
2023-04-18T18:03:31.375Z,33.93
2023-04-18T18:06:00.434Z,37.73
2023-04-18T18:08:30.953Z,34.47
2023-04-18T18:11:01.337Z,32.50
2023-04-18T18:13:31.550Z,31.47
2023-04-18T18:16:00.439Z,34.57
2023-04-18T18:18:32.213Z,33.60
2023-04-18T18:21:03.413Z,37.03
2023-04-18T18:23:35.366Z,31.57
2023-04-18T18:26:06.605Z,34.67
2023-04-18T18:28:36.981Z,36.30
2023-04-18T18:31:06.292Z,34.67
2023-04-18T18:33:35.406Z,38.93
2023-04-18T18:36:04.316Z,31.10
2023-04-18T18:38:35.616Z,34.60
2023-04-18T18:41:04.784Z,31.87
2023-04-18T18:43:35.668Z,33.13
2023-04-18T18:46:04.562Z,29.00
2023-04-18T18:48:38.077Z,33.13
2023-04-18T18:51:06.822Z,33.33
2023-04-18T18:53:39.659Z,35.60
2023-04-18T18:56:10.300Z,33.93
2023-04-18T18:58:39.311Z,39.83
2023-04-18T19:01:08.400Z,36.17
2023-04-18T19:03:37.809Z,42.43
2023-04-18T19:06:08.760Z,36.73
2023-04-18T19:08:41.522Z,36.27
2023-04-18T19:11:12.924Z,43.03
2023-04-18T19:13:45.147Z,36.97
2023-04-18T19:16:14.351Z,36.50
2023-04-18T19:18:47.059Z,34.93
2023-04-18T19:21:16.875Z,46.63
2023-04-18T19:23:49.773Z,42.27
2023-04-18T19:26:20.011Z,46.47
2023-04-18T19:28:49.877Z,46.47
2023-04-18T19:31:18.891Z,55.00
2023-04-18T19:33:48.731Z,54.53
2023-04-18T19:36:17.509Z,49.10
2023-04-18T19:38:46.562Z,46.40
2023-04-18T19:41:17.289Z,38.53
2023-04-18T19:43:46.792Z,34.80
2023-04-18T19:46:15.538Z,31.33
2023-04-18T19:48:56.780Z,33.07
2023-04-18T19:51:28.809Z,31.27
2023-04-18T19:53:57.863Z,32.20
2023-04-18T19:56:28.740Z,32.57
2023-04-18T19:58:58.036Z,28.57
2023-04-18T20:01:27.109Z,30.00
2023-04-18T20:03:58.681Z,35.50
2023-04-18T20:06:27.877Z,31.40
2023-04-18T20:08:56.564Z,33.20
2023-04-18T20:11:27.619Z,34.07
2023-04-18T20:13:56.682Z,36.10
2023-04-18T20:16:25.439Z,38.93
2023-04-18T20:18:55.234Z,37.33
2023-04-18T20:21:23.870Z,36.17
2023-04-18T20:23:52.593Z,35.07
2023-04-18T20:26:21.253Z,32.67
2023-04-18T20:28:51.494Z,32.37
2023-04-18T20:31:20.295Z,29.83
2023-04-18T20:33:49.206Z,34.53
2023-04-18T20:36:18.635Z,36.70
2023-04-18T20:38:47.304Z,31.00
2023-04-18T20:41:18.342Z,33.93
2023-04-18T20:43:47.089Z,35.30
2023-04-18T20:46:17.324Z,27.67
2023-04-18T20:48:45.991Z,30.83
2023-04-18T20:51:14.720Z,32.33
2023-04-18T20:53:43.457Z,30.40
2023-04-18T20:56:12.104Z,29.07
2023-04-18T20:58:41.859Z,31.57
2023-04-18T21:01:10.590Z,30.27
2023-04-18T21:03:40.813Z,35.90
2023-04-18T21:06:09.545Z,33.17
2023-04-18T21:08:39.425Z,29.43
2023-04-18T21:11:08.560Z,28.97
2023-04-18T21:13:37.841Z,31.73
2023-04-18T21:16:10.324Z,30.73
2023-04-18T21:18:40.491Z,33.93
2023-04-18T21:21:09.226Z,30.97
2023-04-18T21:23:43.858Z,32.03
2023-04-18T21:26:14.153Z,30.93
2023-04-18T21:28:57.392Z,29.43
2023-04-18T21:31:27.142Z,28.83
2023-04-18T21:33:59.395Z,32.53
2023-04-18T21:36:30.677Z,31.97
2023-04-18T21:39:01.488Z,36.63
2023-04-18T21:41:30.260Z,29.87
2023-04-18T21:43:58.881Z,28.33
2023-04-18T21:46:27.622Z,30.57
2023-04-18T21:48:57.844Z,34.63
2023-04-18T21:51:27.244Z,31.93
2023-04-18T21:53:56.034Z,30.87
2023-04-18T21:56:24.744Z,36.37
2023-04-18T21:58:53.432Z,33.10
2023-04-18T22:01:22.351Z,32.47
2023-04-18T22:03:51.296Z,30.90
2023-04-18T22:06:23.211Z,33.37
2023-04-18T22:08:52.132Z,30.33
2023-04-18T22:11:23.652Z,25.43
2023-04-18T22:13:54.252Z,34.13
2023-04-18T22:16:24.620Z,30.43
2023-04-18T22:18:54.060Z,29.37
2023-04-18T22:21:24.231Z,33.33
2023-04-18T22:23:52.979Z,29.07
2023-04-18T22:26:21.816Z,32.83
2023-04-18T22:28:50.617Z,31.47
2023-04-18T22:31:19.355Z,35.23
2023-04-18T22:33:48.489Z,29.47
2023-04-18T22:36:17.100Z,28.83
2023-04-18T22:38:47.229Z,31.93
2023-04-18T22:41:15.911Z,28.40
2023-04-18T22:43:44.571Z,27.10
2023-04-18T22:46:13.321Z,26.33
2023-04-18T22:48:42.152Z,29.33
2023-04-18T22:51:11.036Z,28.53
2023-04-18T22:53:39.690Z,35.17
2023-04-18T22:56:10.172Z,28.47
2023-04-18T22:58:38.863Z,32.23
2023-04-18T23:01:07.679Z,30.57
2023-04-18T23:03:36.617Z,26.20
2023-04-18T23:06:07.499Z,28.83
2023-04-18T23:08:36.161Z,27.87
2023-04-18T23:11:04.800Z,33.30
2023-04-18T23:13:34.864Z,27.83
2023-04-18T23:16:03.599Z,27.47
2023-04-18T23:18:32.437Z,28.10
2023-04-18T23:21:02.023Z,35.87
2023-04-18T23:23:30.955Z,27.17
2023-04-18T23:26:00.274Z,27.77
2023-04-18T23:28:28.975Z,26.23
2023-04-18T23:30:59.208Z,26.83
2023-04-18T23:33:27.867Z,29.70
2023-04-18T23:35:56.534Z,34.67
2023-04-18T23:38:25.317Z,28.93
2023-04-18T23:40:54.119Z,29.00
2023-04-18T23:43:22.757Z,28.97
2023-04-18T23:45:51.439Z,26.43
2023-04-18T23:48:21.642Z,26.57
2023-04-18T23:50:52.705Z,28.53
2023-04-18T23:53:22.590Z,27.63
2023-04-18T23:55:51.571Z,27.47
2023-04-18T23:58:20.234Z,28.00
